Time;durP1;ratioP1;P1;durP2;ratioP2;P2;SDS_P1;SDS_P2;PMS_P1;PMS_P2;Temp;Humidity;BMP_temperature;BMP_pressure;BME280_temperature;BME280_humidity;BME280_pressure;Samples;Min_cycle;Max_cycle;Signal;HPM_P1;HPM_P2
2022/09/11 00:00:43;;;;;;;13.60;12.40;;;;;;;;;;5047971;28;20056;-76
2022/09/11 00:03:09;;;;;;;14.40;13.20;;;;;;;;;;5040743;28;20032;-75
2022/09/11 00:05:38;;;;;;;13.93;12.52;;;;;;;;;;5042142;28;20075;-76
2022/09/11 00:08:04;;;;;;;13.77;12.48;;;;;;;;;;5052434;28;20070;-76
2022/09/11 00:10:31;;;;;;;15.38;13.68;;;;;;;;;;5052261;28;20037;-77
2022/09/11 00:12:57;;;;;;;16.30;13.57;;;;;;;;;;5052444;28;20515;-75
2022/09/11 00:15:22;;;;;;;14.32;13.02;;;;;;;;;;5049958;28;20052;-75
2022/09/11 00:17:48;;;;;;;16.33;14.82;;;;;;;;;;5046925;28;20090;-76
2022/09/11 00:20:13;;;;;;;15.35;14.15;;;;;;;;;;5054090;28;20077;-77
2022/09/11 00:22:39;;;;;;;16.65;14.85;;;;;;;;;;5052608;28;20071;-78
2022/09/11 00:25:04;;;;;;;18.90;17.20;;;;;;;;;;5043775;28;20056;-77
2022/09/11 00:27:29;;;;;;;17.70;15.95;;;;;;;;;;5051525;28;20025;-76
2022/09/11 00:29:55;;;;;;;16.92;15.32;;;;;;;;;;5054553;28;20052;-77
2022/09/11 00:32:20;;;;;;;16.40;15.00;;;;;;;;;;5041476;28;20033;-77
2022/09/11 00:34:46;;;;;;;17.13;15.63;;;;;;;;;;5054932;28;20025;-76
2022/09/11 00:37:12;;;;;;;16.27;15.00;;;;;;;;;;5055021;28;20013;-76
2022/09/11 00:39:37;;;;;;;16.70;15.35;;;;;;;;;;5054203;28;20047;-75
2022/09/11 00:42:04;;;;;;;14.40;13.20;;;;;;;;;;5053184;28;20033;-75
2022/09/11 00:44:29;;;;;;;16.67;15.23;;;;;;;;;;5053722;28;20104;-77
2022/09/11 00:46:54;;;;;;;17.42;15.98;;;;;;;;;;5053892;28;20818;-75
2022/09/11 00:49:29;;;;;;;17.20;15.63;;;;;;;;;;5045004;28;20405;-76
2022/09/11 00:52:00;;;;;;;16.45;14.95;;;;;;;;;;5050255;28;20031;-76
2022/09/11 00:54:30;;;;;;;16.27;14.77;;;;;;;;;;5046719;28;20029;-77
2022/09/11 00:56:57;;;;;;;16.00;14.57;;;;;;;;;;5040231;28;20024;-75
2022/09/11 00:59:25;;;;;;;15.27;13.98;;;;;;;;;;5052979;28;20033;-77
2022/09/11 01:01:51;;;;;;;17.20;15.63;;;;;;;;;;5056278;28;20111;-76
2022/09/11 01:04:17;;;;;;;17.88;16.38;;;;;;;;;;5043731;28;20025;-75
2022/09/11 01:06:45;;;;;;;19.00;17.30;;;;;;;;;;5049717;28;20024;-76
2022/09/11 01:09:10;;;;;;;17.92;16.35;;;;;;;;;;5055654;28;20025;-75
2022/09/11 01:11:48;;;;;;;19.27;17.67;;;;;;;;;;5058022;28;20443;-76
2022/09/11 01:14:13;;;;;;;18.17;16.67;;;;;;;;;;5056390;28;20111;-75
2022/09/11 01:16:41;;;;;;;18.65;17.15;;;;;;;;;;5058969;28;20107;-77
2022/09/11 01:19:17;;;;;;;18.15;16.60;;;;;;;;;;5056289;28;20044;-76
2022/09/11 01:21:46;;;;;;;18.05;16.35;;;;;;;;;;5043611;28;20099;-75
2022/09/11 01:24:18;;;;;;;16.15;14.85;;;;;;;;;;5029644;28;20121;-76
2022/09/11 01:26:43;;;;;;;17.10;15.65;;;;;;;;;;5045346;28;20021;-76
2022/09/11 01:29:28;;;;;;;16.92;15.52;;;;;;;;;;5057894;28;20035;-76
2022/09/11 01:32:01;;;;;;;15.88;14.57;;;;;;;;;;5060698;28;20029;-75
2022/09/11 01:34:34;;;;;;;17.02;15.52;;;;;;;;;;5060644;28;20135;-76
2022/09/11 01:37:06;;;;;;;17.27;15.63;;;;;;;;;;5061229;28;20029;-76
2022/09/11 01:39:40;;;;;;;18.55;16.90;;;;;;;;;;5044530;28;20051;-76
2022/09/11 01:42:11;;;;;;;16.67;15.25;;;;;;;;;;5059165;28;20430;-77
2022/09/11 01:44:39;;;;;;;19.25;17.65;;;;;;;;;;5059127;28;20617;-77
2022/09/11 01:47:06;;;;;;;17.60;16.20;;;;;;;;;;5050177;28;20376;-76
2022/09/11 01:49:44;;;;;;;15.48;14.27;;;;;;;;;;5037966;28;21206;-76
2022/09/11 01:52:12;;;;;;;15.82;14.35;;;;;;;;;;5055693;28;20691;-75
2022/09/11 01:54:41;;;;;;;15.18;13.68;;;;;;;;;;5058365;28;20495;-77
2022/09/11 01:57:09;;;;;;;15.00;13.50;;;;;;;;;;5058683;28;20035;-75
2022/09/11 01:59:46;;;;;;;15.23;13.82;;;;;;;;;;5061043;28;20327;-76
2022/09/11 02:02:14;;;;;;;16.33;14.57;;;;;;;;;;5059255;28;20020;-76
2022/09/11 02:04:45;;;;;;;16.42;14.93;;;;;;;;;;5059425;28;20032;-77
2022/09/11 02:07:32;;;;;;;14.63;13.13;;;;;;;;;;5058118;28;20925;-76
2022/09/11 02:10:05;;;;;;;13.27;12.07;;;;;;;;;;5060675;28;20066;-77
2022/09/11 02:12:35;;;;;;;14.05;12.57;;;;;;;;;;5059461;28;20033;-77
2022/09/11 02:15:01;;;;;;;14.32;13.00;;;;;;;;;;5057258;28;20523;-76
2022/09/11 02:17:34;;;;;;;13.80;12.60;;;;;;;;;;5060906;28;20029;-76
2022/09/11 02:20:00;;;;;;;13.57;11.82;;;;;;;;;;5030664;28;20274;-76
2022/09/11 02:22:26;;;;;;;12.40;11.30;;;;;;;;;;5054077;28;21182;-76
2022/09/11 02:24:51;;;;;;;11.68;10.68;;;;;;;;;;5060484;28;20050;-77
2022/09/11 02:27:22;;;;;;;12.32;11.23;;;;;;;;;;5058104;28;20025;-78
2022/09/11 02:29:47;;;;;;;14.43;13.02;;;;;;;;;;5060809;28;20028;-76
2022/09/11 02:32:13;;;;;;;12.68;11.60;;;;;;;;;;5059589;28;20039;-75
2022/09/11 02:34:39;;;;;;;12.27;11.38;;;;;;;;;;5060445;28;20107;-77
2022/09/11 02:37:14;;;;;;;12.98;11.77;;;;;;;;;;5057988;28;20032;-77
2022/09/11 02:39:39;;;;;;;12.98;11.98;;;;;;;;;;5058781;28;20496;-74
2022/09/11 02:42:22;;;;;;;13.18;11.77;;;;;;;;;;5060416;28;20057;-76
2022/09/11 02:44:54;;;;;;;13.65;12.27;;;;;;;;;;5057661;28;20080;-75
2022/09/11 02:47:39;;;;;;;12.75;11.63;;;;;;;;;;5059450;28;20020;-77
2022/09/11 02:50:12;;;;;;;13.55;12.32;;;;;;;;;;5056211;28;20024;-76
2022/09/11 02:52:39;;;;;;;13.75;12.40;;;;;;;;;;5055647;28;20040;-76
2022/09/11 02:55:17;;;;;;;12.90;11.80;;;;;;;;;;5058914;28;20975;-75
2022/09/11 02:57:49;;;;;;;13.05;11.75;;;;;;;;;;5057480;28;20046;-75
2022/09/11 03:00:15;;;;;;;12.95;11.75;;;;;;;;;;5057031;28;20078;-75
2022/09/11 03:02:41;;;;;;;12.80;11.38;;;;;;;;;;5045809;28;20037;-75
2022/09/11 03:05:08;;;;;;;12.77;11.43;;;;;;;;;;5051210;28;20493;-76
2022/09/11 03:07:33;;;;;;;13.15;12.05;;;;;;;;;;5057028;28;20024;-77
2022/09/11 03:09:59;;;;;;;13.45;11.73;;;;;;;;;;5057171;28;20359;-77
2022/09/11 03:12:25;;;;;;;13.05;11.95;;;;;;;;;;5058022;28;20041;-77
2022/09/11 03:14:51;;;;;;;13.32;12.20;;;;;;;;;;5040460;28;20426;-75
2022/09/11 03:17:16;;;;;;;13.65;12.30;;;;;;;;;;5057924;28;20016;-76
2022/09/11 03:19:42;;;;;;;14.40;13.07;;;;;;;;;;5058493;28;20429;-76
2022/09/11 03:22:07;;;;;;;15.85;13.52;;;;;;;;;;5060290;28;20068;-74
2022/09/11 03:24:33;;;;;;;13.45;12.25;;;;;;;;;;5048019;28;20350;-75
2022/09/11 03:26:58;;;;;;;12.95;11.73;;;;;;;;;;5043380;28;20032;-75
2022/09/11 03:29:23;;;;;;;13.70;12.38;;;;;;;;;;5058813;28;20028;-74
2022/09/11 03:31:49;;;;;;;12.68;11.43;;;;;;;;;;5057458;28;20063;-74
2022/09/11 03:34:16;;;;;;;12.73;11.57;;;;;;;;;;5056074;28;20024;-76
2022/09/11 03:36:42;;;;;;;12.90;11.77;;;;;;;;;;5055326;28;20021;-76
2022/09/11 03:39:08;;;;;;;13.95;11.48;;;;;;;;;;5057384;28;20028;-76
2022/09/11 03:41:33;;;;;;;12.48;11.48;;;;;;;;;;5059070;28;20056;-75
2022/09/11 03:43:58;;;;;;;12.57;11.38;;;;;;;;;;5056461;28;20049;-76
2022/09/11 03:46:24;;;;;;;14.27;12.98;;;;;;;;;;5052195;28;20107;-76
2022/09/11 03:48:51;;;;;;;13.23;12.00;;;;;;;;;;5044099;28;20067;-75
2022/09/11 03:51:16;;;;;;;13.48;12.27;;;;;;;;;;5058630;28;20485;-77
2022/09/11 03:53:43;;;;;;;14.48;13.27;;;;;;;;;;5056986;28;20029;-76
2022/09/11 03:56:08;;;;;;;13.05;11.80;;;;;;;;;;5059195;28;20024;-76
2022/09/11 03:58:34;;;;;;;13.45;12.25;;;;;;;;;;5058864;28;20020;-77
2022/09/11 04:00:59;;;;;;;13.90;12.60;;;;;;;;;;5056203;28;20313;-76
2022/09/11 04:03:25;;;;;;;16.58;14.98;;;;;;;;;;5055903;28;20039;-75
2022/09/11 04:05:57;;;;;;;17.00;15.60;;;;;;;;;;5056835;28;20443;-77
2022/09/11 04:08:23;;;;;;;18.05;16.55;;;;;;;;;;5041064;28;20053;-76
2022/09/11 04:10:48;;;;;;;14.05;12.75;;;;;;;;;;5057428;28;20037;-75
2022/09/11 04:13:15;;;;;;;13.52;12.18;;;;;;;;;;5058576;28;20107;-76
2022/09/11 04:15:41;;;;;;;13.88;11.63;;;;;;;;;;5056416;28;20035;-74
2022/09/11 04:18:07;;;;;;;12.70;11.50;;;;;;;;;;5051949;28;20024;-76
2022/09/11 04:20:32;;;;;;;13.50;12.13;;;;;;;;;;5041591;28;20082;-75
2022/09/11 04:22:58;;;;;;;13.13;11.82;;;;;;;;;;5040417;28;20129;-75
2022/09/11 04:25:23;;;;;;;14.02;12.75;;;;;;;;;;5039006;28;20401;-74
2022/09/11 04:27:48;;;;;;;15.02;13.55;;;;;;;;;;5039577;28;20078;-75
2022/09/11 04:30:14;;;;;;;15.65;14.32;;;;;;;;;;5038826;28;20024;-74
2022/09/11 04:32:39;;;;;;;15.98;14.48;;;;;;;;;;5039760;28;20041;-75
2022/09/11 04:35:05;;;;;;;16.25;14.68;;;;;;;;;;5040838;28;20504;-74
2022/09/11 04:37:30;;;;;;;16.98;15.18;;;;;;;;;;5044487;28;20036;-78
2022/09/11 04:39:55;;;;;;;16.83;15.32;;;;;;;;;;5042450;28;20183;-73
2022/09/11 04:42:21;;;;;;;14.52;13.00;;;;;;;;;;5051650;28;20048;-75
2022/09/11 04:44:46;;;;;;;14.55;13.25;;;;;;;;;;5059709;28;20056;-76
2022/09/11 04:47:11;;;;;;;14.90;13.27;;;;;;;;;;5060300;28;20085;-77
2022/09/11 04:49:37;;;;;;;14.65;13.32;;;;;;;;;;5062259;28;20036;-76
2022/09/11 04:52:04;;;;;;;16.77;15.15;;;;;;;;;;5062689;28;20066;-75
2022/09/11 04:54:32;;;;;;;15.82;14.32;;;;;;;;;;5060521;28;20071;-76
2022/09/11 04:56:58;;;;;;;16.85;15.45;;;;;;;;;;5051641;28;20382;-74
2022/09/11 04:59:23;;;;;;;16.85;15.35;;;;;;;;;;5047019;28;20060;-78
2022/09/11 05:01:49;;;;;;;17.42;15.93;;;;;;;;;;5042772;28;20028;-76
2022/09/11 05:04:15;;;;;;;16.75;15.35;;;;;;;;;;5040452;28;20028;-77
2022/09/11 05:06:41;;;;;;;15.73;14.32;;;;;;;;;;5037265;28;20471;-76
2022/09/11 05:09:07;;;;;;;16.30;14.85;;;;;;;;;;5037214;28;20020;-78
2022/09/11 05:11:33;;;;;;;15.65;14.02;;;;;;;;;;5043511;28;20123;-76
2022/09/11 05:13:58;;;;;;;16.95;15.40;;;;;;;;;;5048215;28;20455;-74
2022/09/11 05:16:26;;;;;;;16.05;14.43;;;;;;;;;;5060735;28;20032;-74
2022/09/11 05:18:52;;;;;;;16.30;14.90;;;;;;;;;;5061278;28;20028;-76
2022/09/11 05:21:19;;;;;;;15.70;14.10;;;;;;;;;;5058983;28;20116;-75
2022/09/11 05:23:48;;;;;;;15.82;14.30;;;;;;;;;;5052197;28;20446;-75
2022/09/11 05:26:15;;;;;;;14.68;13.38;;;;;;;;;;5043897;28;20047;-75
2022/09/11 05:28:40;;;;;;;16.30;14.90;;;;;;;;;;5058764;28;20046;-74
2022/09/11 05:31:15;;;;;;;16.73;15.25;;;;;;;;;;5059004;28;20028;-74
2022/09/11 05:33:42;;;;;;;17.10;15.80;;;;;;;;;;5061139;28;20374;-76
2022/09/11 05:36:08;;;;;;;19.27;17.58;;;;;;;;;;5049491;28;20020;-75
2022/09/11 05:38:35;;;;;;;17.25;15.85;;;;;;;;;;5038409;28;20024;-76
2022/09/11 05:41:00;;;;;;;19.20;17.52;;;;;;;;;;5039715;28;20040;-75
2022/09/11 05:43:26;;;;;;;18.58;16.48;;;;;;;;;;5059703;28;20861;-75
2022/09/11 05:45:55;;;;;;;18.15;16.55;;;;;;;;;;5059929;28;20078;-75
2022/09/11 05:48:20;;;;;;;19.75;17.98;;;;;;;;;;5059914;28;20816;-77
2022/09/11 05:50:52;;;;;;;18.27;16.75;;;;;;;;;;5046525;28;20036;-75
2022/09/11 05:53:19;;;;;;;19.00;17.10;;;;;;;;;;5052634;28;20029;-75
2022/09/11 05:55:46;;;;;;;17.98;16.40;;;;;;;;;;5059686;28;20451;-74
2022/09/11 05:58:11;;;;;;;18.15;16.65;;;;;;;;;;5060208;28;20024;-74
2022/09/11 06:00:36;;;;;;;18.30;16.60;;;;;;;;;;5062171;28;20519;-76
2022/09/11 06:03:02;;;;;;;17.08;15.48;;;;;;;;;;5060262;28;20037;-75
2022/09/11 06:05:27;;;;;;;17.08;15.77;;;;;;;;;;5060044;28;20441;-77
2022/09/11 06:07:53;;;;;;;16.30;14.80;;;;;;;;;;5060136;28;20028;-76
2022/09/11 06:10:18;;;;;;;15.93;14.60;;;;;;;;;;5059108;28;20024;-76
2022/09/11 06:12:43;;;;;;;19.73;17.90;;;;;;;;;;5059633;28;20057;-77
2022/09/11 06:15:09;;;;;;;22.23;19.92;;;;;;;;;;5062107;28;20332;-75
2022/09/11 06:17:34;;;;;;;19.45;17.70;;;;;;;;;;5060797;28;20062;-74
2022/09/11 06:20:00;;;;;;;20.25;18.35;;;;;;;;;;5060073;28;20050;-74
2022/09/11 06:22:28;;;;;;;19.92;18.15;;;;;;;;;;5041314;28;20024;-73
2022/09/11 06:24:54;;;;;;;19.30;17.33;;;;;;;;;;5059097;28;20032;-73
2022/09/11 06:27:19;;;;;;;19.05;17.40;;;;;;;;;;5059141;28;20329;-74
2022/09/11 06:29:45;;;;;;;17.98;16.42;;;;;;;;;;5059056;28;20480;-73
2022/09/11 06:32:10;;;;;;;16.98;15.57;;;;;;;;;;5059155;28;20033;-74
2022/09/11 06:34:36;;;;;;;20.42;16.98;;;;;;;;;;5059493;28;20847;-74
2022/09/11 06:37:01;;;;;;;19.25;17.52;;;;;;;;;;5061120;28;20021;-74
2022/09/11 06:39:27;;;;;;;19.52;17.83;;;;;;;;;;5060182;28;20035;-72
2022/09/11 06:41:52;;;;;;;19.70;17.67;;;;;;;;;;5059437;28;20489;-73
2022/09/11 06:44:18;;;;;;;15.95;14.45;;;;;;;;;;5058564;28;20087;-73
2022/09/11 06:46:44;;;;;;;17.88;16.20;;;;;;;;;;5058283;28;20059;-74
2022/09/11 06:49:09;;;;;;;16.35;14.70;;;;;;;;;;5060136;28;20087;-74
2022/09/11 06:51:35;;;;;;;15.10;13.90;;;;;;;;;;5058821;28;20033;-75
2022/09/11 06:54:04;;;;;;;14.45;13.10;;;;;;;;;;5058788;28;20327;-74
2022/09/11 06:56:31;;;;;;;13.88;12.52;;;;;;;;;;5058902;28;20020;-74
2022/09/11 06:58:57;;;;;;;13.60;12.40;;;;;;;;;;5059913;28;20035;-74
2022/09/11 07:01:22;;;;;;;14.43;13.23;;;;;;;;;;5059348;28;20024;-74
2022/09/11 07:03:48;;;;;;;13.55;12.43;;;;;;;;;;5057998;28;20027;-73
2022/09/11 07:06:15;;;;;;;12.15;11.07;;;;;;;;;;5057505;28;20032;-73
2022/09/11 07:08:40;;;;;;;53.22;47.75;;;;;;;;;;5058954;28;20094;-73
2022/09/11 07:11:07;;;;;;;17.33;15.48;;;;;;;;;;5059071;28;20447;-75
2022/09/11 07:13:33;;;;;;;10.43;9.45;;;;;;;;;;5059134;28;20116;-74
2022/09/11 07:16:02;;;;;;;10.40;9.40;;;;;;;;;;5059128;28;20522;-75
2022/09/11 07:18:31;;;;;;;8.93;8.10;;;;;;;;;;5060667;28;20043;-74
2022/09/11 07:20:57;;;;;;;9.40;8.70;;;;;;;;;;5059129;28;20032;-72
2022/09/11 07:23:22;;;;;;;9.25;8.45;;;;;;;;;;5057504;28;20032;-72
2022/09/11 07:25:48;;;;;;;9.77;8.88;;;;;;;;;;5057315;28;20712;-72
2022/09/11 07:28:14;;;;;;;8.93;7.97;;;;;;;;;;5055459;28;20028;-71
2022/09/11 07:30:39;;;;;;;8.23;7.60;;;;;;;;;;5059456;28;20034;-73
2022/09/11 07:33:04;;;;;;;8.10;7.45;;;;;;;;;;5058093;28;20036;-74
2022/09/11 07:35:30;;;;;;;9.38;8.52;;;;;;;;;;5058347;28;20029;-73
2022/09/11 07:37:56;;;;;;;11.27;8.23;;;;;;;;;;5059367;28;20052;-74
2022/09/11 07:40:22;;;;;;;9.38;8.43;;;;;;;;;;5059132;28;20063;-74
2022/09/11 07:42:47;;;;;;;7.22;6.63;;;;;;;;;;5058354;28;20448;-75
2022/09/11 07:45:13;;;;;;;7.45;6.75;;;;;;;;;;5058005;28;20029;-74
2022/09/11 07:47:38;;;;;;;11.65;10.55;;;;;;;;;;5057460;28;20040;-75
2022/09/11 07:50:04;;;;;;;9.63;8.65;;;;;;;;;;5039902;28;20082;-75
2022/09/11 07:52:30;;;;;;;8.00;7.28;;;;;;;;;;5056541;28;20048;-74
2022/09/11 07:54:55;;;;;;;7.22;6.63;;;;;;;;;;5057787;28;20044;-75
2022/09/11 07:57:23;;;;;;;6.97;6.47;;;;;;;;;;5057195;28;20471;-75
2022/09/11 07:59:48;;;;;;;5.88;5.47;;;;;;;;;;5058196;28;20028;-73
2022/09/11 08:02:13;;;;;;;7.60;6.90;;;;;;;;;;5047961;28;20094;-74
2022/09/11 08:04:39;;;;;;;11.57;10.57;;;;;;;;;;5053731;28;20021;-72
2022/09/11 08:07:05;;;;;;;7.03;6.32;;;;;;;;;;5058110;28;20054;-73
2022/09/11 08:09:31;;;;;;;9.27;5.40;;;;;;;;;;5056902;28;20029;-74
2022/09/11 08:11:57;;;;;;;6.00;5.43;;;;;;;;;;5056080;28;20094;-73
2022/09/11 08:14:24;;;;;;;4.22;3.90;;;;;;;;;;5056548;28;20029;-73
2022/09/11 08:16:49;;;;;;;4.07;3.47;;;;;;;;;;5051632;28;20039;-74
2022/09/11 08:19:17;;;;;;;7.25;4.78;;;;;;;;;;5046531;28;20029;-74
2022/09/11 08:21:42;;;;;;;3.70;3.40;;;;;;;;;;5055481;28;20036;-74
2022/09/11 08:24:08;;;;;;;3.95;3.65;;;;;;;;;;5056951;28;20039;-74
2022/09/11 08:26:35;;;;;;;2.67;2.45;;;;;;;;;;5057524;28;20060;-74
2022/09/11 08:29:00;;;;;;;4.30;3.50;;;;;;;;;;5037354;28;20439;-74
2022/09/11 08:31:26;;;;;;;4.88;3.13;;;;;;;;;;5056176;28;20047;-75
2022/09/11 08:33:52;;;;;;;4.30;3.50;;;;;;;;;;5056436;28;20653;-74
2022/09/11 08:36:18;;;;;;;3.85;3.55;;;;;;;;;;5056048;28;20028;-74
2022/09/11 08:38:44;;;;;;;3.53;3.20;;;;;;;;;;5057566;28;20050;-75
2022/09/11 08:41:10;;;;;;;3.72;2.92;;;;;;;;;;5057078;28;20036;-74
2022/09/11 08:43:38;;;;;;;2.90;2.33;;;;;;;;;;5057391;28;20052;-72
2022/09/11 08:46:08;;;;;;;3.15;2.85;;;;;;;;;;5056084;28;20440;-73
2022/09/11 08:48:53;;;;;;;3.13;2.40;;;;;;;;;;5054347;28;20063;-74
2022/09/11 08:51:19;;;;;;;3.53;3.22;;;;;;;;;;5044833;28;20467;-72
2022/09/11 08:53:45;;;;;;;2.75;2.42;;;;;;;;;;5056965;28;20135;-73
2022/09/11 08:56:18;;;;;;;2.63;2.30;;;;;;;;;;5057891;28;20098;-71
2022/09/11 08:59:02;;;;;;;4.40;2.92;;;;;;;;;;5056113;28;20442;-72
2022/09/11 09:01:51;;;;;;;3.15;2.90;;;;;;;;;;5057165;28;20488;-73
2022/09/11 09:04:42;;;;;;;4.32;2.88;;;;;;;;;;5016874;28;20087;-73
2022/09/11 09:07:13;;;;;;;3.88;3.58;;;;;;;;;;5057203;28;20097;-74
2022/09/11 09:09:50;;;;;;;6.07;3.53;;;;;;;;;;5059069;28;20032;-74
2022/09/11 09:12:31;;;;;;;5.05;4.03;;;;;;;;;;5038876;28;20123;-74
2022/09/11 09:14:59;;;;;;;5.05;4.22;;;;;;;;;;5055234;28;20477;-74
2022/09/11 09:17:31;;;;;;;5.53;5.13;;;;;;;;;;5057995;28;20027;-74
2022/09/11 09:20:00;;;;;;;5.45;4.95;;;;;;;;;;5057380;28;20029;-74
2022/09/11 09:22:44;;;;;;;5.28;4.85;;;;;;;;;;5055263;28;20498;-73
2022/09/11 09:25:13;;;;;;;5.72;5.13;;;;;;;;;;5060679;28;20879;-72
2022/09/11 09:27:38;;;;;;;;;;;;;;;;;;5061097;28;20036;-74
2022/09/11 09:30:05;;;;;;;6.87;6.17;;;;;;;;;;5047171;28;20289;-74
2022/09/11 09:32:35;;;;;;;6.72;5.20;;;;;;;;;;5045919;28;20403;-74
2022/09/11 09:35:03;;;;;;;5.05;4.65;;;;;;;;;;5041395;28;20419;-74
2022/09/11 09:37:28;;;;;;;8.82;8.10;;;;;;;;;;5040677;28;20116;-73
2022/09/11 09:39:54;;;;;;;5.18;4.68;;;;;;;;;;5045478;28;20104;-73
2022/09/11 09:42:38;;;;;;;5.65;4.57;;;;;;;;;;5037134;28;20048;-73
2022/09/11 09:45:22;;;;;;;4.72;4.30;;;;;;;;;;5041247;28;20104;-74
2022/09/11 09:47:47;;;;;;;6.05;4.57;;;;;;;;;;5058914;28;20108;-72
2022/09/11 09:50:16;;;;;;;4.97;4.50;;;;;;;;;;5059390;28;20112;-74
2022/09/11 09:52:41;;;;;;;6.07;5.53;;;;;;;;;;5051175;28;20029;-72
2022/09/11 09:55:13;;;;;;;5.68;5.10;;;;;;;;;;5049121;28;20036;-74
2022/09/11 09:57:38;;;;;;;5.63;5.13;;;;;;;;;;5044372;28;20037;-74
2022/09/11 10:00:14;;;;;;;7.78;6.07;;;;;;;;;;5060206;28;20028;-76
2022/09/11 10:02:39;;;;;;;12.82;8.30;;;;;;;;;;5060453;28;20029;-76
2022/09/11 10:05:13;;;;;;;7.50;6.80;;;;;;;;;;5057435;28;20447;-74
2022/09/11 10:07:51;;;;;;;8.52;7.65;;;;;;;;;;5043345;28;20121;-74
2022/09/11 10:10:21;;;;;;;6.97;6.38;;;;;;;;;;5040802;28;20017;-73
2022/09/11 10:12:47;;;;;;;11.18;8.15;;;;;;;;;;5060611;28;20066;-73
2022/09/11 10:15:17;;;;;;;7.18;6.05;;;;;;;;;;5060470;28;20028;-74
2022/09/11 10:17:42;;;;;;;6.47;5.72;;;;;;;;;;5049526;28;20112;-74
2022/09/11 10:20:30;;;;;;;5.05;4.65;;;;;;;;;;5051730;28;20111;-74
2022/09/11 10:22:56;;;;;;;5.05;4.50;;;;;;;;;;5059608;28;20025;-76
2022/09/11 10:25:25;;;;;;;5.32;4.82;;;;;;;;;;5042088;28;20075;-76
2022/09/11 10:28:04;;;;;;;4.65;4.25;;;;;;;;;;5060426;28;20024;-74
2022/09/11 10:30:31;;;;;;;4.65;4.30;;;;;;;;;;5060475;28;20036;-74
2022/09/11 10:32:57;;;;;;;5.07;4.68;;;;;;;;;;5057053;28;20055;-73
2022/09/11 10:35:25;;;;;;;19.45;16.50;;;;;;;;;;5058679;28;20029;-74
2022/09/11 10:38:00;;;;;;;9.38;8.38;;;;;;;;;;5058909;28;20497;-75
2022/09/11 10:40:25;;;;;;;8.05;7.25;;;;;;;;;;5060967;28;20037;-75
2022/09/11 10:42:51;;;;;;;8.60;7.80;;;;;;;;;;5060700;28;20102;-75
2022/09/11 10:45:20;;;;;;;5.55;5.05;;;;;;;;;;5057750;28;20032;-73
2022/09/11 10:47:47;;;;;;;5.47;5.00;;;;;;;;;;5058009;28;20036;-75
2022/09/11 10:50:15;;;;;;;5.57;4.78;;;;;;;;;;5059156;28;20091;-73
2022/09/11 10:52:56;;;;;;;4.40;4.00;;;;;;;;;;5059641;28;20044;-73
2022/09/11 10:55:22;;;;;;;3.63;3.42;;;;;;;;;;5059569;28;20065;-75
2022/09/11 10:57:51;;;;;;;5.25;4.75;;;;;;;;;;5057377;28;20033;-74
2022/09/11 11:00:18;;;;;;;4.38;3.63;;;;;;;;;;5060117;28;20032;-74
2022/09/11 11:02:44;;;;;;;4.28;3.70;;;;;;;;;;5058574;28;20193;-74
2022/09/11 11:05:25;;;;;;;3.33;3.03;;;;;;;;;;5059968;28;20032;-75
2022/09/11 11:08:11;;;;;;;3.95;2.95;;;;;;;;;;5058244;28;20469;-74
2022/09/11 11:10:45;;;;;;;2.45;2.10;;;;;;;;;;5058735;28;20470;-73
2022/09/11 11:13:19;;;;;;;4.60;2.63;;;;;;;;;;5058175;28;20071;-75
2022/09/11 11:15:44;;;;;;;3.92;2.10;;;;;;;;;;5059643;28;20024;-73
2022/09/11 11:18:13;;;;;;;2.97;1.80;;;;;;;;;;5058448;28;20028;-73
2022/09/11 11:20:59;;;;;;;2.95;1.70;;;;;;;;;;5059201;28;20060;-73
2022/09/11 11:23:47;;;;;;;2.20;2.10;;;;;;;;;;5057034;28;20028;-75
2022/09/11 11:26:19;;;;;;;2.30;2.17;;;;;;;;;;5058429;28;20159;-75
2022/09/11 11:28:57;;;;;;;2.55;2.00;;;;;;;;;;5056665;28;20040;-74
2022/09/11 11:31:35;;;;;;;7.57;3.33;;;;;;;;;;5058168;28;20490;-74
2022/09/11 11:34:08;;;;;;;2.90;2.58;;;;;;;;;;5058698;28;20036;-75
2022/09/11 11:36:46;;;;;;;2.80;2.60;;;;;;;;;;5058735;28;20028;-74
2022/09/11 11:39:23;;;;;;;4.95;2.50;;;;;;;;;;5058727;28;20115;-74
2022/09/11 11:42:07;;;;;;;2.78;2.58;;;;;;;;;;5058110;28;20360;-74
2022/09/11 11:44:35;;;;;;;2.60;2.40;;;;;;;;;;5056353;28;20064;-74
2022/09/11 11:47:03;;;;;;;5.47;2.53;;;;;;;;;;5056567;28;20035;-75
2022/09/11 11:49:38;;;;;;;2.70;2.50;;;;;;;;;;5057712;28;20024;-74
2022/09/11 11:52:03;;;;;;;2.47;2.28;;;;;;;;;;5055622;28;20074;-73
2022/09/11 11:54:36;;;;;;;4.57;2.50;;;;;;;;;;5057377;28;20415;-74
2022/09/11 11:57:10;;;;;;;2.83;2.30;;;;;;;;;;5059577;28;20346;-74
2022/09/11 11:59:54;;;;;;;3.55;2.13;;;;;;;;;;5058097;28;20658;-74
2022/09/11 12:02:21;;;;;;;2.22;2.08;;;;;;;;;;5058409;28;20029;-74
2022/09/11 12:04:49;;;;;;;2.50;2.30;;;;;;;;;;5059078;28;20024;-74
2022/09/11 12:07:15;;;;;;;3.97;2.20;;;;;;;;;;5057347;28;20029;-74
2022/09/11 12:09:51;;;;;;;2.08;1.90;;;;;;;;;;5056838;28;20025;-73
2022/09/11 12:12:18;;;;;;;2.00;1.60;;;;;;;;;;5057629;28;20447;-74
2022/09/11 12:14:53;;;;;;;1.40;1.30;;;;;;;;;;5058216;28;20025;-73
2022/09/11 12:17:29;;;;;;;3.38;1.10;;;;;;;;;;5058858;28;20025;-74
2022/09/11 12:20:10;;;;;;;3.00;1.00;;;;;;;;;;5054988;28;20025;-73
2022/09/11 12:22:43;;;;;;;3.63;1.40;;;;;;;;;;5059152;28;20024;-76
2022/09/11 12:25:18;;;;;;;1.55;1.42;;;;;;;;;;5056465;28;20436;-76
2022/09/11 12:27:43;;;;;;;1.63;1.30;;;;;;;;;;5056120;28;20068;-74
2022/09/11 12:30:15;;;;;;;1.50;1.40;;;;;;;;;;5057628;28;20105;-74
2022/09/11 12:32:53;;;;;;;1.30;1.20;;;;;;;;;;5057125;28;20032;-73
2022/09/11 12:35:22;;;;;;;2.08;1.40;;;;;;;;;;5056474;28;20024;-71
2022/09/11 12:37:59;;;;;;;2.30;1.23;;;;;;;;;;5059425;28;20338;-75
2022/09/11 12:40:48;;;;;;;2.08;1.20;;;;;;;;;;5057172;28;20067;-73
2022/09/11 12:43:17;;;;;;;1.80;1.38;;;;;;;;;;5043981;28;20053;-73
2022/09/11 12:45:43;;;;;;;3.05;1.40;;;;;;;;;;5055726;28;20721;-74
2022/09/11 12:48:11;;;;;;;1.30;1.20;;;;;;;;;;5044294;28;20052;-73
2022/09/11 12:50:37;;;;;;;1.55;1.45;;;;;;;;;;5050452;28;20031;-74
2022/09/11 12:53:04;;;;;;;1.50;1.40;;;;;;;;;;5055774;28;20029;-74
2022/09/11 12:55:38;;;;;;;1.50;1.40;;;;;;;;;;5057215;28;20039;-73
2022/09/11 12:58:05;;;;;;;1.20;1.10;;;;;;;;;;5057681;28;20440;-74
2022/09/11 13:00:37;;;;;;;3.58;1.35;;;;;;;;;;5061429;28;20024;-72
2022/09/11 13:03:03;;;;;;;1.40;1.10;;;;;;;;;;5059901;28;20106;-74
2022/09/11 13:05:33;;;;;;;3.67;1.40;;;;;;;;;;5041432;28;20426;-74
2022/09/11 13:08:03;;;;;;;1.40;1.30;;;;;;;;;;5063596;28;20028;-72
2022/09/11 13:10:32;;;;;;;1.40;1.20;;;;;;;;;;5062006;28;20029;-74
2022/09/11 13:12:59;;;;;;;3.60;1.30;;;;;;;;;;5061718;28;20458;-74
2022/09/11 13:15:30;;;;;;;1.45;1.30;;;;;;;;;;5062321;28;20099;-74
2022/09/11 13:17:55;;;;;;;2.35;1.38;;;;;;;;;;5060738;28;20153;-74
2022/09/11 13:20:21;;;;;;;3.75;1.80;;;;;;;;;;5061516;28;20476;-74
2022/09/11 13:22:47;;;;;;;1.88;1.48;;;;;;;;;;5062705;28;20020;-75
2022/09/11 13:25:14;;;;;;;2.20;1.30;;;;;;;;;;5062131;28;20063;-74
2022/09/11 13:27:41;;;;;;;6.70;4.63;;;;;;;;;;5062489;28;20032;-74
2022/09/11 13:30:06;;;;;;;19.75;14.65;;;;;;;;;;5063011;28;20031;-74
2022/09/11 13:32:33;;;;;;;17.33;12.40;;;;;;;;;;5061927;28;20036;-75
2022/09/11 13:35:02;;;;;;;22.35;14.70;;;;;;;;;;5059636;28;20470;-74
2022/09/11 13:37:30;;;;;;;107.43;65.20;;;;;;;;;;5059035;28;20032;-74
2022/09/11 13:39:56;;;;;;;100.97;64.38;;;;;;;;;;5060721;28;20502;-73
2022/09/11 13:42:22;;;;;;;56.85;38.50;;;;;;;;;;5058868;28;20213;-73
2022/09/11 13:44:54;;;;;;;26.05;16.30;;;;;;;;;;5061616;28;21015;-75
2022/09/11 13:47:24;;;;;;;4.97;3.30;;;;;;;;;;5060510;28;20029;-73
2022/09/11 13:49:51;;;;;;;1.90;1.65;;;;;;;;;;5059138;28;20690;-75
2022/09/11 13:52:17;;;;;;;1.67;1.58;;;;;;;;;;5060499;28;20363;-74
2022/09/11 13:54:48;;;;;;;3.00;1.55;;;;;;;;;;5060697;28;20038;-75
2022/09/11 13:57:20;;;;;;;10.27;5.78;;;;;;;;;;5061194;28;20020;-75
2022/09/11 13:59:48;;;;;;;8.48;5.72;;;;;;;;;;5059797;28;20078;-73
2022/09/11 14:02:14;;;;;;;9.95;6.00;;;;;;;;;;5060189;28;20024;-74
2022/09/11 14:04:40;;;;;;;4.47;3.50;;;;;;;;;;5060689;28;20024;-75
2022/09/11 14:07:14;;;;;;;6.93;3.17;;;;;;;;;;5059093;28;20044;-73
2022/09/11 14:09:39;;;;;;;3.15;2.67;;;;;;;;;;5057308;28;20032;-74
2022/09/11 14:12:05;;;;;;;1.80;1.70;;;;;;;;;;5058975;28;20036;-74
2022/09/11 14:14:30;;;;;;;1.42;1.33;;;;;;;;;;5061264;28;20346;-74
2022/09/11 14:16:57;;;;;;;4.55;1.55;;;;;;;;;;5039394;28;20032;-74
2022/09/11 14:19:25;;;;;;;1.50;1.40;;;;;;;;;;5060453;28;20021;-73
2022/09/11 14:21:51;;;;;;;2.25;1.38;;;;;;;;;;5061394;28;20539;-74
2022/09/11 14:24:31;;;;;;;2.15;1.30;;;;;;;;;;5058953;28;20048;-74
2022/09/11 14:26:57;;;;;;;1.52;1.42;;;;;;;;;;5060348;28;20024;-73
2022/09/11 14:29:24;;;;;;;2.92;2.15;;;;;;;;;;5059768;28;20025;-73
2022/09/11 14:31:51;;;;;;;2.83;1.90;;;;;;;;;;5061266;28;20044;-74
2022/09/11 14:34:19;;;;;;;2.15;1.80;;;;;;;;;;5058704;28;20032;-74
2022/09/11 14:37:01;;;;;;;6.47;2.55;;;;;;;;;;5060241;28;20505;-75